Hailey Friedman Memorial Airport

Current Flights

Info
Name: Hailey Friedman Memorial Airport
Identifier:  SUN/KSUN
Local Time:  18. Jun 11:34
City
Flights per Day
15 flights
Distance: 642km (398mi)
Punctuality
87% (2 flights per day delayed)
Delay Average: 2 minutes
Current Weather
 18 C (Humidity: 67%)
  7kt (12km/h / 8mph) from 130°
  16km (10 mi.)
 SK
 METAR KSUN 181647Z 13007KT 10SM SKC 18/12 A3015

Current Delays

Departures
N/A
Arrivals
N/A

Destinations

Top Destinations
Airport Flights
per week
Seats
per week
  Salt Lake City (SLC) 50 1,129 7 161
  Seattle (SEA) 5 414 0 59
  Twin Falls (TWF) 3 16 0 2
  Seattle (BFI) 3 - 0 0
  Boise (BOI) 2 - 0 0
  San Jose (SJC) 1 - 0 0
  Orange County (SNA) 1 - 0 0
  Van Nuys (VNY) 1 - 0 0
  San Diego (CLD) 1 - 0 0
  Monterey (MRY) 1 - 0 0

Airlines & Planes

Top Airlines
Airline Flights
per Day
Seats
per Day
  SkyWest Airlines 4 164
  Delta Air Lines 1 -
  Nolinor Aviation 1 -
  Federal Express (FedEx) 0 0
NetJets 0 -1
  Horizon Air 0 59
  Novair 0 -
Alpine Air Express 0 -
  Flybe Nordic 0 -
Jet Charter Inc ( Franklin Lakes Nj ) 0 -
Top Plane Types
Model Flights Seats
Embraer E175 4.9/day 164/day 164.66666666666666
Beech C-99 Airliner 1.2/day - 0
Cessna C208 0.9/day - -0.8666666666666667
Bombardier Dash 8-400 0.8/day 59/day 59.2
Beech B200 Super King Air 0.6/day - 0
Cessna C25A 0.6/day - 0
Pilatus PC-12 0.5/day - 0
Piper PA-46-350P Malibu Mirage 0.4/day - 0
Cessna C68A 0.3/day - -0.4
Cessna C56X 0.3/day - -0.26666666666666666